Time;durP1;ratioP1;P1;durP2;ratioP2;P2;SDS_P1;SDS_P2;PMS_P1;PMS_P2;Temp;Humidity;BMP_temperature;BMP_pressure;BME280_temperature;BME280_humidity;BME280_pressure;Samples;Min_cycle;Max_cycle;Signal;HPM_P1;HPM_P2
2022/07/09 00:01:46;;;;;;;3.95;1.50;;;14.80;90.00;;;;;;4936891;29;20083;-69
2022/07/09 00:04:11;;;;;;;4.30;1.73;;;14.80;90.10;;;;;;4933587;29;20028;-69
2022/07/09 00:06:37;;;;;;;5.07;1.67;;;14.80;90.30;;;;;;4928769;29;20230;-69
2022/07/09 00:09:03;;;;;;;3.00;1.45;;;14.70;90.40;;;;;;4933169;29;20039;-70
2022/07/09 00:11:28;;;;;;;2.50;1.60;;;14.70;90.60;;;;;;4940282;29;20027;-69
2022/07/09 00:13:54;;;;;;;4.75;1.70;;;14.70;90.70;;;;;;4934598;29;20135;-68
2022/07/09 00:16:20;;;;;;;5.90;1.80;;;14.70;90.80;;;;;;4937086;29;20036;-67
2022/07/09 00:18:45;;;;;;;5.65;1.70;;;14.70;90.80;;;;;;4937214;29;20027;-70
2022/07/09 00:21:11;;;;;;;4.20;1.90;;;14.70;90.90;;;;;;4939762;29;20473;-69
2022/07/09 00:23:36;;;;;;;3.47;1.60;;;14.60;90.90;;;;;;4937576;29;20119;-70
2022/07/09 00:26:02;;;;;;;4.32;1.77;;;14.60;91.00;;;;;;4936858;29;20377;-68
2022/07/09 00:28:28;;;;;;;4.03;1.30;;;14.50;91.20;;;;;;4942812;29;20051;-69
2022/07/09 00:30:53;;;;;;;3.42;1.50;;;14.50;91.40;;;;;;4944140;29;20039;-69
2022/07/09 00:33:19;;;;;;;2.47;2.00;;;14.40;91.50;;;;;;4939979;29;20476;-68
2022/07/09 00:35:44;;;;;;;2.58;1.42;;;14.40;91.80;;;;;;4936449;29;20060;-70
2022/07/09 00:38:10;;;;;;;3.90;1.75;;;14.30;92.00;;;;;;4935836;29;20552;-68
2022/07/09 00:40:36;;;;;;;4.07;1.63;;;14.30;92.20;;;;;;4937571;29;20469;-70
2022/07/09 00:43:01;;;;;;;3.58;2.15;;;14.30;92.40;;;;;;4936609;29;20084;-70
2022/07/09 00:45:27;;;;;;;7.00;2.50;;;14.20;92.60;;;;;;4930640;29;20032;-70
2022/07/09 00:47:52;;;;;;;6.18;1.95;;;14.20;93.10;;;;;;4936819;29;20090;-70
2022/07/09 00:50:18;;;;;;;7.68;1.75;;;14.20;92.90;;;;;;4936279;29;20038;-70
2022/07/09 00:52:45;;;;;;;4.55;1.90;;;14.20;93.00;;;;;;4933999;29;20390;-70
2022/07/09 00:55:12;;;;;;;3.17;1.50;;;14.20;93.10;;;;;;4935814;29;20028;-70
2022/07/09 00:57:39;;;;;;;1.80;1.35;;;14.10;93.40;;;;;;4939081;29;20036;-70
2022/07/09 01:00:07;;;;;;;2.88;1.35;;;;;;;;;;4939201;29;20051;-70
2022/07/09 01:02:34;;;;;;;2.42;1.45;;;;;;;;;;4937357;29;20054;-70
2022/07/09 01:05:00;;;;;;;2.50;1.58;;;;;;;;;;4931404;29;20039;-70
2022/07/09 01:07:26;;;;;;;3.00;1.60;;;;;;;;;;4937933;29;20032;-70
2022/07/09 01:09:52;;;;;;;3.67;1.90;;;;;;;;;;4934778;29;20028;-70
2022/07/09 01:12:18;;;;;;;4.22;1.50;;;;;;;;;;4930587;29;20031;-70
2022/07/09 01:14:44;;;;;;;2.20;1.10;;;;;;;;;;4936221;29;20054;-69
2022/07/09 01:17:10;;;;;;;3.47;1.58;;;;;;;;;;4937648;29;20038;-70
2022/07/09 01:19:36;;;;;;;3.83;1.60;;;;;;;;;;4937407;29;20035;-70
2022/07/09 01:22:03;;;;;;;5.07;2.05;;;;;;;;;;4934758;29;20040;-70
2022/07/09 01:24:29;;;;;;;2.05;1.58;;;;;;;;;;4938006;29;20453;-69
2022/07/09 01:26:55;;;;;;;4.47;2.13;;;;;;;;;;4935178;29;20035;-69
2022/07/09 01:29:21;;;;;;;4.32;1.77;;;;;;;;;;4930515;29;20028;-68
2022/07/09 01:31:48;;;;;;;3.17;1.40;;;;;;;;;;4934894;29;20090;-69
2022/07/09 01:34:13;;;;;;;7.45;1.80;;;;;;;;;;4937028;29;20038;-70
2022/07/09 01:36:39;;;;;;;3.45;1.13;;;14.00;99.90;;;;;;4937899;29;20024;-70
2022/07/09 01:39:05;;;;;;;2.63;1.98;;;14.00;99.90;;;;;;4937081;29;20480;-69
2022/07/09 01:41:31;;;;;;;2.60;1.48;;;13.90;99.90;;;;;;4934072;29;20038;-70
2022/07/09 01:43:57;;;;;;;3.85;1.52;;;13.90;99.90;;;;;;4936765;29;20023;-69
2022/07/09 01:46:23;;;;;;;3.75;1.52;;;13.80;99.90;;;;;;4934556;29;20034;-69
2022/07/09 01:48:49;;;;;;;5.38;1.55;;;13.80;99.90;;;;;;4937698;29;20491;-70
2022/07/09 01:51:15;;;;;;;3.00;1.30;;;13.70;99.90;;;;;;4935162;29;20054;-69
2022/07/09 01:53:41;;;;;;;3.00;1.50;;;13.60;95.80;;;;;;4936933;29;20401;-70
2022/07/09 01:56:08;;;;;;;2.45;1.50;;;13.60;95.90;;;;;;4935901;29;20032;-70
2022/07/09 01:58:34;;;;;;;3.95;1.40;;;13.60;96.10;;;;;;4937015;29;20086;-70
2022/07/09 02:01:00;;;;;;;2.63;1.63;;;13.60;96.30;;;;;;4936949;29;20031;-69
2022/07/09 02:03:26;;;;;;;5.28;1.40;;;13.50;96.40;;;;;;4932892;29;20035;-69
2022/07/09 02:05:51;;;;;;;4.43;1.65;;;13.50;96.60;;;;;;4934013;29;20526;-70
2022/07/09 02:08:17;;;;;;;5.15;1.58;;;13.50;96.60;;;;;;4931884;29;20072;-70
2022/07/09 02:10:43;;;;;;;4.35;1.50;;;13.50;96.80;;;;;;4933154;29;20299;-69
2022/07/09 02:13:08;;;;;;;2.95;1.50;;;13.50;97.00;;;;;;4937190;29;20028;-69
2022/07/09 02:15:34;;;;;;;3.13;1.80;;;13.40;97.10;;;;;;4937463;29;20043;-70
2022/07/09 02:18:00;;;;;;;7.55;1.88;;;13.40;97.30;;;;;;4935653;29;20111;-69
2022/07/09 02:20:26;;;;;;;3.50;1.98;;;13.40;97.30;;;;;;4930321;29;20889;-70
2022/07/09 02:22:52;;;;;;;6.90;1.80;;;13.30;97.30;;;;;;4936104;29;20485;-71
2022/07/09 02:25:18;;;;;;;4.72;1.55;;;13.30;97.40;;;;;;4937173;29;20082;-69
2022/07/09 02:27:43;;;;;;;3.95;1.70;;;13.30;97.60;;;;;;4936100;29;20068;-71
2022/07/09 02:30:09;;;;;;;3.78;1.40;;;13.30;97.70;;;;;;4934343;29;20074;-70
2022/07/09 02:32:36;;;;;;;4.70;1.67;;;13.20;97.90;;;;;;4935443;29;20036;-69
2022/07/09 02:35:02;;;;;;;2.67;1.45;;;13.20;98.00;;;;;;4937158;29;20027;-70
2022/07/09 02:37:28;;;;;;;2.50;1.38;;;13.10;98.20;;;;;;4933932;29;20500;-69
2022/07/09 02:39:53;;;;;;;3.65;1.80;;;13.10;98.30;;;;;;4931276;29;20040;-69
2022/07/09 02:42:19;;;;;;;2.83;1.65;;;13.00;98.50;;;;;;4917880;29;20027;-69
2022/07/09 02:44:45;;;;;;;2.88;1.67;;;13.00;98.70;;;;;;4935393;29;20059;-70
2022/07/09 02:47:10;;;;;;;3.38;1.70;;;13.00;99.00;;;;;;4936457;29;20083;-70
2022/07/09 02:49:36;;;;;;;2.65;1.67;;;13.00;99.10;;;;;;4935775;29;20072;-69
2022/07/09 02:52:02;;;;;;;4.75;1.85;;;12.90;99.20;;;;;;4934636;29;20070;-70
2022/07/09 02:54:30;;;;;;;3.50;1.73;;;12.90;99.30;;;;;;4932734;29;20083;-70
2022/07/09 02:56:55;;;;;;;2.20;1.75;;;12.90;99.70;;;;;;4936928;29;20027;-69
2022/07/09 02:59:21;;;;;;;3.17;2.00;;;12.80;99.80;;;;;;4937857;29;20028;-69
2022/07/09 03:01:47;;;;;;;4.30;1.90;;;12.80;99.90;;;;;;4933814;29;20504;-69
2022/07/09 03:04:13;;;;;;;3.08;1.83;;;12.70;99.90;;;;;;4935704;29;20106;-70
2022/07/09 03:06:38;;;;;;;4.00;1.80;;;12.70;99.90;;;;;;4935998;29;20035;-69
2022/07/09 03:09:04;;;;;;;3.03;1.88;;;12.70;99.90;;;;;;4925349;29;20473;-70
2022/07/09 03:11:30;;;;;;;4.45;1.90;;;12.70;99.90;;;;;;4932758;29;20418;-68
2022/07/09 03:13:55;;;;;;;5.07;1.90;;;12.70;99.90;;;;;;4914553;29;20381;-69
2022/07/09 03:16:21;;;;;;;5.65;2.35;;;12.70;99.90;;;;;;4933029;29;20031;-70
2022/07/09 03:18:46;;;;;;;7.00;1.98;;;12.70;99.90;;;;;;4934764;29;20031;-70
2022/07/09 03:21:12;;;;;;;5.07;2.13;;;12.70;99.90;;;;;;4933735;29;20106;-69
2022/07/09 03:23:41;;;;;;;4.60;1.80;;;12.70;99.90;;;;;;4933517;29;20075;-71
2022/07/09 03:26:06;;;;;;;4.80;1.80;;;12.70;99.90;;;;;;4933619;29;20441;-70
2022/07/09 03:28:34;;;;;;;3.33;1.65;;;12.70;99.90;;;;;;4934033;29;20036;-70
2022/07/09 03:31:00;;;;;;;3.95;1.70;;;12.70;99.90;;;;;;4933644;29;20035;-70
2022/07/09 03:33:25;;;;;;;3.42;1.73;;;12.70;99.90;;;;;;4935480;29;20031;-70
2022/07/09 03:35:52;;;;;;;4.47;2.22;;;12.70;99.90;;;;;;4936018;29;20043;-71
2022/07/09 03:38:18;;;;;;;3.58;2.10;;;12.70;99.90;;;;;;4934127;29;20043;-70
2022/07/09 03:40:44;;;;;;;5.88;1.85;;;12.70;99.90;;;;;;4932652;29;20035;-70
2022/07/09 03:43:09;;;;;;;4.65;2.05;;;12.70;99.90;;;;;;4935851;29;20031;-70
2022/07/09 03:45:35;;;;;;;4.47;1.65;;;12.70;99.90;;;;;;4932428;29;20429;-69
2022/07/09 03:48:00;;;;;;;7.25;2.30;;;12.70;99.90;;;;;;4930414;29;20237;-70
2022/07/09 03:50:26;;;;;;;6.32;1.90;;;12.70;99.90;;;;;;4934203;29;20032;-70
2022/07/09 03:52:51;;;;;;;2.42;2.10;;;12.70;99.90;;;;;;4935397;29;20055;-69
2022/07/09 03:55:17;;;;;;;4.25;1.77;;;12.80;99.90;;;;;;4934671;29;20114;-70
2022/07/09 03:57:43;;;;;;;4.07;2.00;;;12.80;99.90;;;;;;4932473;29;20040;-70
2022/07/09 04:00:09;;;;;;;5.47;2.00;;;12.80;99.90;;;;;;4938187;29;20066;-69
2022/07/09 04:02:34;;;;;;;5.55;2.38;;;12.80;99.90;;;;;;4931301;29;20115;-69
2022/07/09 04:05:00;;;;;;;4.10;1.90;;;12.80;99.90;;;;;;4933845;29;20042;-69
2022/07/09 04:07:26;;;;;;;4.43;1.70;;;12.90;99.90;;;;;;4930598;29;20035;-70
2022/07/09 04:09:55;;;;;;;3.40;2.22;;;12.90;99.90;;;;;;4935371;29;20083;-69
2022/07/09 04:12:21;;;;;;;5.22;2.00;;;12.90;99.90;;;;;;4932335;29;20051;-69
2022/07/09 04:14:46;;;;;;;3.88;1.60;;;12.90;99.90;;;;;;4934069;29;20036;-70
2022/07/09 04:17:12;;;;;;;3.65;1.90;;;12.90;99.90;;;;;;4933294;29;20039;-71
2022/07/09 04:19:38;;;;;;;3.50;2.25;;;12.90;99.90;;;;;;4931898;29;20521;-70
2022/07/09 04:22:04;;;;;;;5.93;2.10;;;12.90;99.90;;;;;;4931227;29;20032;-70
2022/07/09 04:24:29;;;;;;;6.25;2.40;;;13.00;99.90;;;;;;4933914;29;20541;-70
2022/07/09 04:26:55;;;;;;;4.32;2.20;;;13.00;99.90;;;;;;4935461;29;20111;-70
2022/07/09 04:29:21;;;;;;;4.35;2.00;;;13.00;99.90;;;;;;4933516;29;20036;-70
2022/07/09 04:31:47;;;;;;;4.10;1.90;;;13.10;99.90;;;;;;4934390;29;20043;-70
2022/07/09 04:34:12;;;;;;;4.05;1.92;;;13.10;99.90;;;;;;4933658;29;20059;-70
2022/07/09 04:36:38;;;;;;;5.38;1.92;;;13.20;99.90;;;;;;4928749;29;20039;-69
2022/07/09 04:39:04;;;;;;;3.15;1.90;;;13.20;99.90;;;;;;4935059;29;20106;-70
2022/07/09 04:41:30;;;;;;;5.88;1.88;;;13.30;99.90;;;;;;4935299;29;20159;-70
2022/07/09 04:43:55;;;;;;;2.72;1.75;;;13.30;99.90;;;;;;4932692;29;20106;-70
2022/07/09 04:46:22;;;;;;;3.72;2.13;;;13.30;99.90;;;;;;4918372;29;20118;-70
2022/07/09 04:48:48;;;;;;;3.45;1.90;;;13.40;99.90;;;;;;4934611;29;20036;-69
2022/07/09 04:51:14;;;;;;;6.85;2.20;;;13.40;99.90;;;;;;4929222;29;20028;-69
2022/07/09 04:53:39;;;;;;;3.03;2.15;;;13.50;99.90;;;;;;4931671;29;20118;-71
2022/07/09 04:56:06;;;;;;;5.15;2.00;;;13.50;99.90;;;;;;4934214;29;20028;-70
2022/07/09 04:58:32;;;;;;;5.97;2.38;;;13.60;99.90;;;;;;4937245;29;20488;-69
2022/07/09 05:00:58;;;;;;;5.18;2.28;;;13.70;99.90;;;;;;4935519;29;20027;-69
2022/07/09 05:03:24;;;;;;;4.20;1.98;;;13.70;99.90;;;;;;4935932;29;20035;-70
2022/07/09 05:05:50;;;;;;;5.68;2.05;;;13.80;99.90;;;;;;4937542;29;20032;-68
2022/07/09 05:08:17;;;;;;;3.83;1.95;;;13.80;99.90;;;;;;4937477;29;20036;-69
2022/07/09 05:10:43;;;;;;;4.10;1.80;;;13.90;99.90;;;;;;4936289;29;20023;-69
2022/07/09 05:13:08;;;;;;;2.78;1.60;;;13.90;99.90;;;;;;4933957;29;20054;-70
2022/07/09 05:15:34;;;;;;;4.28;2.13;;;14.00;99.90;;;;;;4938060;29;20047;-70
2022/07/09 05:18:00;;;;;;;5.22;2.00;;;14.00;99.90;;;;;;4936759;29;20073;-70
2022/07/09 05:20:26;;;;;;;7.88;2.58;;;14.10;99.90;;;;;;4936425;29;20032;-70
2022/07/09 05:22:51;;;;;;;6.75;2.92;;;14.20;99.90;;;;;;4935961;29;20031;-70
2022/07/09 05:25:17;;;;;;;5.57;2.55;;;14.20;99.90;;;;;;4937210;29;20038;-69
2022/07/09 05:27:44;;;;;;;7.97;2.95;;;14.40;99.90;;;;;;4936096;29;20040;-69
2022/07/09 05:30:10;;;;;;;6.38;3.15;;;14.50;99.90;;;;;;4936285;29;20442;-70
2022/07/09 05:32:36;;;;;;;8.38;3.20;;;14.70;99.90;;;;;;4937982;29;20020;-70
2022/07/09 05:35:02;;;;;;;4.93;2.90;;;14.80;99.90;;;;;;4937709;29;20380;-70
2022/07/09 05:37:27;;;;;;;16.05;3.33;;;14.90;99.90;;;;;;4934329;29;20489;-70
2022/07/09 05:39:56;;;;;;;4.80;3.00;;;15.10;99.90;;;;;;4936256;29;20451;-69
2022/07/09 05:42:22;;;;;;;6.60;2.70;;;15.20;99.90;;;;;;4936503;29;20031;-70
2022/07/09 05:44:48;;;;;;;8.63;3.42;;;15.20;99.90;;;;;;4931262;29;20385;-70
2022/07/09 05:47:15;;;;;;;7.93;3.38;;;15.30;99.90;;;;;;4937536;29;20123;-69
2022/07/09 05:49:40;;;;;;;5.10;3.00;;;15.50;99.90;;;;;;4930136;28;20032;-69
2022/07/09 05:52:06;;;;;;;8.32;3.05;;;15.60;99.90;;;;;;4933785;28;20055;-69
2022/07/09 05:54:32;;;;;;;6.68;3.03;;;15.60;99.90;;;;;;4937756;29;20433;-68
2022/07/09 05:56:58;;;;;;;6.57;2.85;;;15.70;99.90;;;;;;4941013;29;20024;-69
2022/07/09 05:59:23;;;;;;;6.50;3.22;;;15.80;99.90;;;;;;4942755;29;20043;-69
2022/07/09 06:01:49;;;;;;;6.35;2.55;;;15.90;99.70;;;;;;4933113;29;20027;-68
2022/07/09 06:04:15;;;;;;;8.63;2.90;;;15.90;99.70;;;;;;4940079;29;20441;-68
2022/07/09 06:06:40;;;;;;;9.02;3.03;;;16.10;99.40;;;;;;4931655;29;20036;-69
2022/07/09 06:09:06;;;;;;;4.82;2.80;;;16.20;99.10;;;;;;4934391;29;20098;-69
2022/07/09 06:11:32;;;;;;;3.55;2.13;;;16.40;98.70;;;;;;4935122;29;20076;-69
2022/07/09 06:13:58;;;;;;;9.73;2.90;;;16.40;98.80;;;;;;4936766;29;20031;-70
2022/07/09 06:16:23;;;;;;;5.97;3.10;;;16.60;98.50;;;;;;4934120;29;20283;-68
2022/07/09 06:18:49;;;;;;;8.50;3.38;;;16.70;98.00;;;;;;4930269;29;20023;-70
2022/07/09 06:21:15;;;;;;;7.07;2.92;;;16.80;97.70;;;;;;4934550;29;20039;-70
2022/07/09 06:23:40;;;;;;;7.32;2.80;;;17.00;97.50;;;;;;4941467;29;20059;-69
2022/07/09 06:26:06;;;;;;;8.63;2.78;;;17.10;97.30;;;;;;4939359;29;20074;-72
2022/07/09 06:28:36;;;;;;;6.50;3.17;;;17.30;96.90;;;;;;4934849;29;20071;-72
2022/07/09 06:31:01;;;;;;;6.05;3.72;;;17.50;96.90;;;;;;4940277;29;20032;-72
2022/07/09 06:33:27;;;;;;;5.53;2.50;;;17.60;96.80;;;;;;4941947;29;20027;-69
2022/07/09 06:35:53;;;;;;;6.68;2.88;;;17.80;96.50;;;;;;4933827;29;20035;-69
2022/07/09 06:38:19;;;;;;;4.05;2.53;;;18.00;96.40;;;;;;4936128;29;20481;-70
2022/07/09 06:40:44;;;;;;;5.28;2.65;;;18.30;95.40;;;;;;4937764;29;20055;-71
2022/07/09 06:43:11;;;;;;;5.13;2.83;;;18.40;95.10;;;;;;4941388;29;20090;-70
2022/07/09 06:45:36;;;;;;;4.88;2.65;;;18.50;94.80;;;;;;4929439;29;20457;-69
2022/07/09 06:48:03;;;;;;;7.18;3.60;;;18.60;94.70;;;;;;4936067;29;20035;-70
2022/07/09 06:50:29;;;;;;;5.25;2.33;;;18.60;94.60;;;;;;4934633;29;20461;-69
2022/07/09 06:52:54;;;;;;;8.73;3.05;;;18.60;94.60;;;;;;4934477;28;20055;-71
2022/07/09 06:55:20;;;;;;;7.72;2.60;;;18.50;94.80;;;;;;4935690;29;20483;-69
2022/07/09 06:57:45;;;;;;;8.23;3.03;;;18.50;95.00;;;;;;4933939;29;20035;-69
2022/07/09 07:00:11;;;;;;;6.97;2.92;;;18.60;94.70;;;;;;4933514;29;20055;-68
2022/07/09 07:02:37;;;;;;;5.75;2.40;;;18.70;94.60;;;;;;4938639;29;20035;-69
2022/07/09 07:05:04;;;;;;;9.15;2.60;;;18.70;94.70;;;;;;4935883;29;20043;-70
2022/07/09 07:07:30;;;;;;;7.32;2.70;;;18.80;94.40;;;;;;4938630;29;20044;-69
2022/07/09 07:09:55;;;;;;;7.38;2.53;;;19.00;94.30;;;;;;4937813;29;20151;-69
2022/07/09 07:12:21;;;;;;;8.95;2.63;;;19.10;93.80;;;;;;4926807;29;20058;-70
2022/07/09 07:14:47;;;;;;;7.32;2.83;;;19.30;93.80;;;;;;4936532;29;20023;-70
2022/07/09 07:17:12;;;;;;;5.53;2.50;;;19.60;92.90;;;;;;4926408;29;20389;-69
2022/07/09 07:19:39;;;;;;;5.18;2.58;;;19.60;93.10;;;;;;4935463;29;20028;-69
2022/07/09 07:22:04;;;;;;;10.00;3.10;;;19.80;92.90;;;;;;4933650;29;20504;-69
2022/07/09 07:24:30;;;;;;;9.02;2.97;;;20.00;92.80;;;;;;4930732;29;20028;-69
2022/07/09 07:26:57;;;;;;;12.02;2.97;;;20.20;92.60;;;;;;4934915;29;20027;-70
2022/07/09 07:29:23;;;;;;;8.35;2.90;;;20.40;92.60;;;;;;4930005;28;20109;-72
2022/07/09 07:31:49;;;;;;;6.43;2.92;;;20.60;92.10;;;;;;4934159;28;20047;-73
2022/07/09 07:34:15;;;;;;;4.78;2.10;;;20.80;91.80;;;;;;4936006;28;20500;-81
2022/07/09 07:36:41;;;;;;;6.22;2.58;;;20.80;91.60;;;;;;4938021;28;20028;-85
2022/07/09 07:39:07;;;;;;;5.55;2.40;;;20.80;91.30;;;;;;4936365;29;20043;-79
2022/07/09 07:41:32;;;;;;;24.52;3.53;;;20.90;91.40;;;;;;4932232;28;20400;-79
2022/07/09 07:43:58;;;;;;;4.72;2.70;;;20.90;91.50;;;;;;4937552;28;20139;-79
2022/07/09 07:46:24;;;;;;;6.63;2.72;;;20.80;91.40;;;;;;4932637;29;20035;-76
2022/07/09 07:48:50;;;;;;;8.07;2.63;;;20.90;91.50;;;;;;4940429;29;20115;-76
2022/07/09 07:51:16;;;;;;;8.35;2.83;;;21.00;91.30;;;;;;4938474;29;20484;-78
2022/07/09 07:53:42;;;;;;;4.93;2.75;;;21.20;91.10;;;;;;4936188;28;20048;-75
2022/07/09 07:56:08;;;;;;;5.20;2.50;;;21.20;90.90;;;;;;4933994;29;20139;-79
2022/07/09 07:58:35;;;;;;;6.70;2.90;;;21.30;91.10;;;;;;4935731;29;20366;-77
2022/07/09 08:01:01;;;;;;;9.65;2.58;;;21.30;90.80;;;;;;4935331;29;20032;-80
2022/07/09 08:03:27;;;;;;;9.10;2.90;;;21.40;91.10;;;;;;4933042;29;20034;-78
2022/07/09 08:05:52;;;;;;;7.35;2.72;;;21.50;90.20;;;;;;4932395;29;20087;-75
2022/07/09 08:08:18;;;;;;;6.57;2.90;;;21.50;90.10;;;;;;4938674;29;20119;-80
2022/07/09 08:10:45;;;;;;;7.78;2.65;;;21.50;90.00;;;;;;4944000;29;20078;-85
2022/07/09 08:13:12;;;;;;;10.68;3.05;;;21.60;90.20;;;;;;4935902;29;20032;-86
2022/07/09 08:15:38;;;;;;;6.50;2.67;;;21.70;90.20;;;;;;4916582;29;20019;-82
2022/07/09 08:18:04;;;;;;;5.43;2.22;;;21.80;90.00;;;;;;4931498;29;20043;-81
2022/07/09 08:20:30;;;;;;;8.13;2.60;;;22.00;99.90;;;;;;4928402;29;20031;-82
2022/07/09 08:22:55;;;;;;;6.72;2.30;;;22.10;99.90;;;;;;4940198;29;20114;-81
2022/07/09 08:25:21;;;;;;;6.00;2.50;;;22.10;99.90;;;;;;4939193;29;20039;-81
2022/07/09 08:27:49;;;;;;;6.90;2.45;;;;;;;;;;4949093;29;20452;-79
2022/07/09 08:30:15;;;;;;;7.97;2.22;;;;;;;;;;4934095;29;20378;-79
2022/07/09 08:32:41;;;;;;;6.70;2.15;;;;;;;;;;4933120;29;20039;-83
2022/07/09 08:35:07;;;;;;;9.13;2.35;;;;;;;;;;4936401;29;20047;-82
2022/07/09 08:37:33;;;;;;;5.95;2.15;;;;;;;;;;4929616;29;20482;-80
2022/07/09 08:40:00;;;;;;;4.90;1.85;;;;;;;;;;4937048;29;20087;-82
2022/07/09 08:42:27;;;;;;;5.57;1.80;;;;;;;;;;4937188;29;20032;-80
2022/07/09 08:44:54;;;;;;;3.95;2.22;;;;;;;;;;4940783;28;20059;-79
2022/07/09 08:47:20;;;;;;;3.15;1.83;;;;;;;;;;4937569;29;20028;-82
2022/07/09 08:49:47;;;;;;;4.45;2.00;;;;;;;;;;4939974;29;20039;-80
2022/07/09 08:52:13;;;;;;;7.30;2.00;;;;;;;;;;4936080;29;20056;-79
2022/07/09 08:54:42;;;;;;;6.10;2.33;;;23.40;95.50;;;;;;4935346;29;20054;-78
2022/07/09 08:57:08;;;;;;;5.03;1.87;;;23.30;99.90;;;;;;4937247;29;20594;-81
2022/07/09 08:59:34;;;;;;;5.05;1.83;;;23.30;82.10;;;;;;4944837;29;20285;-83
2022/07/09 09:02:08;;;;;;;4.72;1.40;;;;;;;;;;4939049;29;20032;-76
2022/07/09 09:04:39;;;;;;;3.97;1.73;;;;;;;;;;4937600;29;20089;-79
2022/07/09 09:07:16;;;;;;;3.88;1.65;;;23.90;99.90;;;;;;4936151;29;20040;-78
2022/07/09 09:09:42;;;;;;;3.97;1.58;;;23.90;80.00;;;;;;4934975;29;20036;-78
2022/07/09 09:12:08;;;;;;;5.90;1.85;;;24.00;79.00;;;;;;4936977;29;20036;-75
2022/07/09 09:14:34;;;;;;;8.15;1.35;;;24.10;78.40;;;;;;4939711;29;20039;-78
2022/07/09 09:17:09;;;;;;;2.85;1.30;;;24.00;78.60;;;;;;4938143;29;20112;-78
2022/07/09 09:19:35;;;;;;;3.65;1.30;;;24.10;77.30;;;;;;4937712;29;20035;-80
2022/07/09 09:22:01;;;;;;;2.55;1.13;;;24.10;76.40;;;;;;4939922;29;20086;-79
2022/07/09 09:24:28;;;;;;;7.30;1.23;;;23.90;75.60;;;;;;4942028;29;20047;-78
2022/07/09 09:27:14;;;;;;;3.47;1.08;;;23.90;76.60;;;;;;4935521;29;20087;-78
2022/07/09 09:29:49;;;;;;;2.00;1.10;;;23.90;75.60;;;;;;4934114;29;20035;-79
2022/07/09 09:32:21;;;;;;;2.53;0.93;;;24.10;75.30;;;;;;4939453;29;20485;-78
2022/07/09 09:34:50;;;;;;;3.83;1.00;;;24.20;75.10;;;;;;4940094;29;20032;-77
2022/07/09 09:37:29;;;;;;;2.10;1.10;;;24.50;74.80;;;;;;4936960;29;20078;-78
2022/07/09 09:39:55;;;;;;;2.13;1.05;;;24.70;74.30;;;;;;4942195;29;20031;-78
2022/07/09 09:42:24;;;;;;;3.75;1.20;;;24.80;74.00;;;;;;4932937;29;20034;-78
2022/07/09 09:44:50;;;;;;;2.13;1.13;;;25.00;74.20;;;;;;4942740;28;20412;-79
2022/07/09 09:47:23;;;;;;;3.92;1.60;;;25.10;72.90;;;;;;4941439;29;20473;-80
2022/07/09 09:49:50;;;;;;;3.22;1.15;;;25.20;72.40;;;;;;4938014;29;20031;-76
2022/07/09 09:52:18;;;;;;;4.63;1.58;;;25.30;71.50;;;;;;4936941;29;20056;-78
2022/07/09 09:54:47;;;;;;;2.20;1.20;;;25.60;70.60;;;;;;4944954;29;20230;-78
2022/07/09 09:57:19;;;;;;;1.98;1.10;;;25.70;69.70;;;;;;4930365;29;20031;-78
2022/07/09 09:59:45;;;;;;;3.67;1.45;;;25.70;69.10;;;;;;4943015;29;20154;-79
2022/07/09 10:02:12;;;;;;;2.72;1.10;;;25.70;68.60;;;;;;4944369;29;20038;-79
2022/07/09 10:04:40;;;;;;;4.32;1.58;;;25.90;69.10;;;;;;4941004;29;20019;-78
2022/07/09 10:07:06;;;;;;;2.63;1.15;;;26.00;68.80;;;;;;4937656;29;20031;-82
2022/07/09 10:09:32;;;;;;;4.50;1.58;;;26.20;68.70;;;;;;4939864;29;20046;-78
2022/07/09 10:11:58;;;;;;;2.72;1.23;;;26.40;68.50;;;;;;4939119;29;20414;-79
2022/07/09 10:14:24;;;;;;;3.50;1.58;;;26.60;68.10;;;;;;4943410;28;20532;-78
2022/07/09 10:16:53;;;;;;;3.25;1.20;;;26.70;67.10;;;;;;4936384;29;20060;-77
2022/07/09 10:19:29;;;;;;;6.70;1.70;;;26.80;66.80;;;;;;4936133;29;20489;-75
2022/07/09 10:21:57;;;;;;;1.50;0.90;;;26.90;66.50;;;;;;4938940;29;20054;-76
2022/07/09 10:24:29;;;;;;;5.93;1.30;;;26.80;66.30;;;;;;4939980;29;20066;-81
2022/07/09 10:27:09;;;;;;;4.63;1.20;;;26.60;65.60;;;;;;4945330;29;20446;-80
2022/07/09 10:29:36;;;;;;;3.53;1.45;;;26.30;66.70;;;;;;4945377;29;20067;-81
2022/07/09 10:32:02;;;;;;;3.42;1.02;;;25.90;67.40;;;;;;4943695;29;20047;-79
2022/07/09 10:34:34;;;;;;;6.18;1.20;;;25.60;67.10;;;;;;4940569;29;20031;-81
2022/07/09 10:37:04;;;;;;;1.95;0.82;;;25.30;66.80;;;;;;4949243;29;20027;-81
2022/07/09 10:39:30;;;;;;;1.50;0.98;;;25.10;67.00;;;;;;4943657;29;20042;-79
2022/07/09 10:42:00;;;;;;;2.05;1.10;;;25.00;67.00;;;;;;4945081;29;20036;-79
2022/07/09 10:44:28;;;;;;;2.95;1.20;;;25.10;67.10;;;;;;4938050;29;20036;-81
2022/07/09 10:46:57;;;;;;;2.47;1.08;;;25.10;67.50;;;;;;4928342;29;20031;-80
2022/07/09 10:49:24;;;;;;;2.83;1.30;;;25.40;67.70;;;;;;4929484;29;20095;-83
2022/07/09 10:51:54;;;;;;;3.50;1.20;;;25.80;66.90;;;;;;4933788;29;20287;-82
2022/07/09 10:54:20;;;;;;;2.58;1.00;;;26.30;65.50;;;;;;4934640;29;20128;-83
2022/07/09 10:56:46;;;;;;;2.25;0.98;;;26.80;64.00;;;;;;4934412;29;20035;-82
2022/07/09 10:59:17;;;;;;;2.70;1.17;;;27.20;63.70;;;;;;4934525;29;20036;-82
2022/07/09 11:01:43;;;;;;;2.90;1.00;;;27.30;62.40;;;;;;4936549;29;20091;-83
2022/07/09 11:04:09;;;;;;;2.10;0.80;;;27.10;62.10;;;;;;4936034;29;20035;-81
2022/07/09 11:06:45;;;;;;;1.20;0.90;;;26.90;62.50;;;;;;4933023;29;20082;-75
2022/07/09 11:09:13;;;;;;;1.52;0.85;;;26.90;63.10;;;;;;4932267;29;20036;-73
2022/07/09 11:11:41;;;;;;;2.80;1.10;;;26.80;63.10;;;;;;4932276;29;20393;-73
2022/07/09 11:14:06;;;;;;;1.73;1.05;;;26.70;62.80;;;;;;4930762;28;20031;-75
2022/07/09 11:16:32;;;;;;;2.53;1.48;;;26.70;63.00;;;;;;4938303;28;20111;-73
2022/07/09 11:18:57;;;;;;;1.58;0.90;;;26.70;63.10;;;;;;4937495;29;20063;-74
2022/07/09 11:21:24;;;;;;;2.65;1.35;;;26.70;63.60;;;;;;4937065;28;20388;-73
2022/07/09 11:23:50;;;;;;;1.98;1.08;;;26.60;63.90;;;;;;4932769;29;20047;-74
2022/07/09 11:26:15;;;;;;;3.17;1.35;;;26.40;64.40;;;;;;4939041;29;20042;-72
2022/07/09 11:28:41;;;;;;;4.13;1.20;;;26.10;65.60;;;;;;4936358;29;20036;-73
2022/07/09 11:31:07;;;;;;;3.42;1.20;;;25.90;65.60;;;;;;4939138;29;20036;-75
2022/07/09 11:36:18;;;;;;;3.40;1.42;;;25.60;66.40;;;;;;4944629;29;20401;-72
2022/07/09 11:38:52;;;;;;;3.05;0.93;;;25.50;66.60;;;;;;4935132;29;20043;-75
2022/07/09 11:41:18;;;;;;;1.17;1.00;;;25.50;66.80;;;;;;4934136;29;20024;-74
2022/07/09 11:43:51;;;;;;;2.35;1.10;;;25.50;66.40;;;;;;4930329;29;20122;-76
2022/07/09 11:46:19;;;;;;;4.70;1.40;;;25.90;66.90;;;;;;4935654;29;20023;-74
2022/07/09 11:48:52;;;;;;;1.30;0.90;;;26.30;65.90;;;;;;4936734;29;20369;-76
2022/07/09 11:51:30;;;;;;;1.55;1.05;;;26.60;63.90;;;;;;4934287;29;20482;-75
2022/07/09 11:53:56;;;;;;;2.78;1.52;;;26.60;64.40;;;;;;4915264;29;20097;-76
2022/07/09 11:56:22;;;;;;;4.28;1.20;;;26.60;64.50;;;;;;4916230;29;20024;-76
2022/07/09 11:58:51;;;;;;;1.10;0.80;;;26.50;64.90;;;;;;4908834;29;20043;-76
2022/07/09 12:01:17;;;;;;;1.75;0.90;;;26.40;65.20;;;;;;4914523;29;20035;-76
2022/07/09 12:03:48;;;;;;;2.33;0.90;;;26.50;65.30;;;;;;4914392;29;20084;-76
2022/07/09 12:06:14;;;;;;;2.85;1.10;;;26.60;64.40;;;;;;4913712;29;20032;-74
2022/07/09 12:08:40;;;;;;;3.20;0.95;;;26.70;64.80;;;;;;4915203;29;20040;-76
2022/07/09 12:11:06;;;;;;;2.33;1.00;;;26.80;64.50;;;;;;4917160;29;20430;-76
2022/07/09 12:13:32;;;;;;;2.45;0.98;;;27.00;64.30;;;;;;4915926;29;20036;-76
2022/07/09 12:15:58;;;;;;;2.10;0.88;;;27.20;63.00;;;;;;4912781;29;20052;-78
2022/07/09 12:18:24;;;;;;;2.28;0.98;;;27.60;62.90;;;;;;4914384;29;20032;-75
2022/07/09 12:20:50;;;;;;;5.22;0.90;;;27.80;62.70;;;;;;4918390;29;20042;-75
2022/07/09 12:23:15;;;;;;;2.38;0.90;;;27.70;63.30;;;;;;4918348;29;20115;-74
2022/07/09 12:25:41;;;;;;;2.53;0.90;;;27.40;63.30;;;;;;4916508;29;20382;-76
2022/07/09 12:28:07;;;;;;;2.30;1.15;;;27.30;63.70;;;;;;4916332;29;20047;-76
2022/07/09 12:30:32;;;;;;;3.75;1.20;;;27.10;64.20;;;;;;4916669;29;20028;-73
2022/07/09 12:32:58;;;;;;;2.45;1.13;;;26.90;64.60;;;;;;4914516;29;20393;-80
2022/07/09 12:35:25;;;;;;;3.63;0.90;;;26.80;64.00;;;;;;4919097;29;20043;-79
2022/07/09 12:37:51;;;;;;;2.22;1.02;;;26.70;64.60;;;;;;4917150;29;20051;-75
2022/07/09 12:40:16;;;;;;;2.80;0.90;;;26.80;64.60;;;;;;4916284;29;20385;-75
2022/07/09 12:42:42;;;;;;;1.95;0.85;;;26.90;64.30;;;;;;4918345;29;20500;-75
2022/07/09 12:45:09;;;;;;;2.92;0.90;;;27.30;63.70;;;;;;4916453;29;20926;-74
2022/07/09 12:47:34;;;;;;;3.25;1.13;;;27.50;64.80;;;;;;4918133;29;20048;-74
2022/07/09 12:50:02;;;;;;;4.25;1.20;;;27.50;63.00;;;;;;4915430;29;20468;-72
2022/07/09 12:52:29;;;;;;;4.10;0.85;;;27.50;63.60;;;;;;4923731;29;20532;-77
2022/07/09 12:54:55;;;;;;;1.23;0.77;;;27.60;62.90;;;;;;4937709;29;20036;-74